sensor_id;sensor_type;location;lat;lon;timestamp;pressure;altitude;pressure_sealevel;temperature;humidity
65173;BME280;51758;52.218;5.172;2023-04-01T00:00:31;95963.78;;;9.36;100.00
65173;BME280;51758;52.218;5.172;2023-04-01T00:02:59;95979.47;;;9.31;100.00
65173;BME280;51758;52.218;5.172;2023-04-01T00:05:28;95985.94;;;9.33;100.00
65173;BME280;51758;52.218;5.172;2023-04-01T00:07:56;95992.97;;;9.33;100.00
65173;BME280;51758;52.218;5.172;2023-04-01T00:10:23;95990.75;;;9.40;100.00
65173;BME280;51758;52.218;5.172;2023-04-01T00:12:51;96012.63;;;9.39;100.00
65173;BME280;51758;52.218;5.172;2023-04-01T00:15:21;96012.63;;;9.39;100.00
65173;BME280;51758;52.218;5.172;2023-04-01T00:17:48;96021.22;;;9.40;100.00
65173;BME280;51758;52.218;5.172;2023-04-01T00:20:16;96019.88;;;9.42;100.00
65173;BME280;51758;52.218;5.172;2023-04-01T00:22:44;96039.72;;;9.38;100.00
65173;BME280;51758;52.218;5.172;2023-04-01T00:25:12;96054.44;;;9.29;100.00
65173;BME280;51758;52.218;5.172;2023-04-01T00:27:40;96065.25;;;9.36;100.00
65173;BME280;51758;52.218;5.172;2023-04-01T00:30:09;96070.53;;;9.31;100.00
65173;BME280;51758;52.218;5.172;2023-04-01T00:32:38;96070.53;;;9.31;100.00
65173;BME280;51758;52.218;5.172;2023-04-01T00:35:07;96077.38;;;9.27;100.00
65173;BME280;51758;52.218;5.172;2023-04-01T00:37:35;96090.88;;;9.29;100.00
65173;BME280;51758;52.218;5.172;2023-04-01T00:40:05;96095.19;;;9.20;100.00
65173;BME280;51758;52.218;5.172;2023-04-01T00:42:34;96090.38;;;9.27;100.00
65173;BME280;51758;52.218;5.172;2023-04-01T00:45:25;96106.38;;;9.20;100.00
65173;BME280;51758;52.218;5.172;2023-04-01T00:47:55;96106.84;;;9.22;100.00
65173;BME280;51758;52.218;5.172;2023-04-01T00:50:24;96113.59;;;9.23;100.00
65173;BME280;51758;52.218;5.172;2023-04-01T00:52:53;96106.25;;;9.12;100.00
65173;BME280;51758;52.218;5.172;2023-04-01T00:55:22;96135.53;;;9.17;100.00
65173;BME280;51758;52.218;5.172;2023-04-01T00:57:51;96127.53;;;9.14;100.00
65173;BME280;51758;52.218;5.172;2023-04-01T01:00:22;96127.53;;;9.14;100.00
65173;BME280;51758;52.218;5.172;2023-04-01T01:02:51;96129.44;;;9.08;100.00
65173;BME280;51758;52.218;5.172;2023-04-01T01:05:23;96133.38;;;9.06;100.00
65173;BME280;51758;52.218;5.172;2023-04-01T01:08:01;96123.47;;;9.08;100.00
65173;BME280;51758;52.218;5.172;2023-04-01T01:10:34;96122.63;;;8.93;100.00
65173;BME280;51758;52.218;5.172;2023-04-01T01:13:08;96120.38;;;9.06;100.00
65173;BME280;51758;52.218;5.172;2023-04-01T01:15:41;96130.00;;;9.05;100.00
65173;BME280;51758;52.218;5.172;2023-04-01T01:18:19;96129.09;;;8.96;100.00
65173;BME280;51758;52.218;5.172;2023-04-01T01:21:03;96140.88;;;8.88;100.00
65173;BME280;51758;52.218;5.172;2023-04-01T01:24:04;96137.38;;;8.98;100.00
65173;BME280;51758;52.218;5.172;2023-04-01T01:26:57;96131.75;;;8.91;100.00
65173;BME280;51758;52.218;5.172;2023-04-01T01:29:39;96126.28;;;8.92;100.00
65173;BME280;51758;52.218;5.172;2023-04-01T01:32:17;96126.69;;;8.81;100.00
65173;BME280;51758;52.218;5.172;2023-04-01T01:34:52;96131.38;;;8.79;100.00
65173;BME280;51758;52.218;5.172;2023-04-01T01:37:24;96130.13;;;8.76;100.00
65173;BME280;51758;52.218;5.172;2023-04-01T01:39:55;96117.97;;;8.72;100.00
65173;BME280;51758;52.218;5.172;2023-04-01T01:42:25;96116.56;;;8.79;100.00
65173;BME280;51758;52.218;5.172;2023-04-01T01:44:56;96108.63;;;8.71;100.00
65173;BME280;51758;52.218;5.172;2023-04-01T01:47:27;96120.91;;;8.65;100.00
65173;BME280;51758;52.218;5.172;2023-04-01T01:49:56;96114.88;;;8.70;100.00
65173;BME280;51758;52.218;5.172;2023-04-01T01:52:27;96113.09;;;8.65;100.00
65173;BME280;51758;52.218;5.172;2023-04-01T01:54:57;96115.72;;;8.65;100.00
65173;BME280;51758;52.218;5.172;2023-04-01T01:57:27;96107.13;;;8.65;100.00
65173;BME280;51758;52.218;5.172;2023-04-01T01:59:58;96094.31;;;8.73;100.00
65173;BME280;51758;52.218;5.172;2023-04-01T02:02:28;96102.38;;;8.72;100.00
65173;BME280;51758;52.218;5.172;2023-04-01T02:04:58;96079.66;;;8.77;100.00
65173;BME280;51758;52.218;5.172;2023-04-01T02:07:31;96067.38;;;8.64;100.00
65173;BME280;51758;52.218;5.172;2023-04-01T02:10:00;96079.31;;;8.65;100.00
65173;BME280;51758;52.218;5.172;2023-04-01T02:12:29;96085.91;;;8.76;100.00
65173;BME280;51758;52.218;5.172;2023-04-01T02:15:00;96062.47;;;8.81;100.00
65173;BME280;51758;52.218;5.172;2023-04-01T02:17:32;96053.09;;;8.99;100.00
65173;BME280;51758;52.218;5.172;2023-04-01T02:20:03;96078.63;;;8.78;100.00
65173;BME280;51758;52.218;5.172;2023-04-01T02:22:37;96080.22;;;8.74;100.00
65173;BME280;51758;52.218;5.172;2023-04-01T02:25:10;96086.28;;;8.70;100.00
65173;BME280;51758;52.218;5.172;2023-04-01T02:27:38;96077.56;;;8.79;100.00
65173;BME280;51758;52.218;5.172;2023-04-01T02:30:07;96077.50;;;8.66;100.00
65173;BME280;51758;52.218;5.172;2023-04-01T02:32:36;96086.50;;;8.73;100.00
65173;BME280;51758;52.218;5.172;2023-04-01T02:35:07;96086.19;;;8.75;100.00
65173;BME280;51758;52.218;5.172;2023-04-01T02:37:38;96085.31;;;8.84;100.00
65173;BME280;51758;52.218;5.172;2023-04-01T02:40:10;96074.84;;;8.71;100.00
65173;BME280;51758;52.218;5.172;2023-04-01T02:42:38;96071.16;;;8.90;100.00
65173;BME280;51758;52.218;5.172;2023-04-01T02:45:07;96074.31;;;8.87;100.00
65173;BME280;51758;52.218;5.172;2023-04-01T02:47:35;96071.44;;;8.89;100.00
65173;BME280;51758;52.218;5.172;2023-04-01T02:50:04;96081.06;;;8.88;100.00
65173;BME280;51758;52.218;5.172;2023-04-01T02:52:32;96070.44;;;9.04;100.00
65173;BME280;51758;52.218;5.172;2023-04-01T02:55:02;96069.47;;;8.99;100.00
65173;BME280;51758;52.218;5.172;2023-04-01T02:57:30;96070.38;;;9.09;100.00
65173;BME280;51758;52.218;5.172;2023-04-01T02:59:58;96067.25;;;9.25;100.00
65173;BME280;51758;52.218;5.172;2023-04-01T03:02:25;96066.97;;;9.27;100.00
65173;BME280;51758;52.218;5.172;2023-04-01T03:04:53;96078.31;;;9.17;100.00
65173;BME280;51758;52.218;5.172;2023-04-01T03:07:21;96085.53;;;9.20;100.00
65173;BME280;51758;52.218;5.172;2023-04-01T03:09:49;96098.44;;;9.12;100.00
65173;BME280;51758;52.218;5.172;2023-04-01T03:12:18;96108.06;;;9.11;100.00
65173;BME280;51758;52.218;5.172;2023-04-01T03:14:46;96100.28;;;9.25;100.00
65173;BME280;51758;52.218;5.172;2023-04-01T03:17:14;96113.78;;;9.27;100.00
65173;BME280;51758;52.218;5.172;2023-04-01T03:19:41;96113.16;;;9.35;100.00
65173;BME280;51758;52.218;5.172;2023-04-01T03:22:09;96131.56;;;9.39;100.00
65173;BME280;51758;52.218;5.172;2023-04-01T03:24:38;96130.72;;;9.43;100.00
65173;BME280;51758;52.218;5.172;2023-04-01T03:27:06;96142.28;;;9.37;100.00
65173;BME280;51758;52.218;5.172;2023-04-01T03:29:35;96166.97;;;9.21;100.00
65173;BME280;51758;52.218;5.172;2023-04-01T03:32:03;96174.22;;;9.24;100.00
65173;BME280;51758;52.218;5.172;2023-04-01T03:34:31;96181.53;;;9.22;100.00
65173;BME280;51758;52.218;5.172;2023-04-01T03:36:59;96199.03;;;9.16;100.00
65173;BME280;51758;52.218;5.172;2023-04-01T03:39:27;96196.50;;;9.30;100.00
65173;BME280;51758;52.218;5.172;2023-04-01T03:41:55;96200.50;;;9.41;100.00
65173;BME280;51758;52.218;5.172;2023-04-01T03:44:23;96211.47;;;9.38;100.00
65173;BME280;51758;52.218;5.172;2023-04-01T03:46:52;96219.94;;;9.30;100.00
65173;BME280;51758;52.218;5.172;2023-04-01T03:49:20;96222.09;;;9.42;100.00
65173;BME280;51758;52.218;5.172;2023-04-01T03:51:48;96224.84;;;9.50;100.00
65173;BME280;51758;52.218;5.172;2023-04-01T03:54:16;96233.41;;;9.51;100.00
65173;BME280;51758;52.218;5.172;2023-04-01T03:56:44;96247.78;;;9.48;100.00
65173;BME280;51758;52.218;5.172;2023-04-01T03:59:12;96241.56;;;9.63;100.00
65173;BME280;51758;52.218;5.172;2023-04-01T04:01:40;96252.16;;;9.72;100.00
65173;BME280;51758;52.218;5.172;2023-04-01T04:04:10;96263.19;;;9.63;100.00
65173;BME280;51758;52.218;5.172;2023-04-01T04:06:39;96269.31;;;9.73;100.00
65173;BME280;51758;52.218;5.172;2023-04-01T04:09:06;96288.50;;;9.77;100.00
65173;BME280;51758;52.218;5.172;2023-04-01T04:11:34;96306.28;;;9.75;100.00
65173;BME280;51758;52.218;5.172;2023-04-01T04:14:02;96323.00;;;9.68;100.00
65173;BME280;51758;52.218;5.172;2023-04-01T04:16:30;96338.63;;;9.68;100.00
65173;BME280;51758;52.218;5.172;2023-04-01T04:18:58;96354.75;;;9.70;100.00
65173;BME280;51758;52.218;5.172;2023-04-01T04:21:27;96364.66;;;9.68;100.00
65173;BME280;51758;52.218;5.172;2023-04-01T04:23:54;96381.56;;;9.71;100.00
65173;BME280;51758;52.218;5.172;2023-04-01T04:26:22;96386.41;;;9.78;100.00
65173;BME280;51758;52.218;5.172;2023-04-01T04:28:50;96404.16;;;9.76;100.00
65173;BME280;51758;52.218;5.172;2023-04-01T04:31:19;96424.25;;;9.75;100.00
65173;BME280;51758;52.218;5.172;2023-04-01T04:33:47;96438.88;;;9.71;100.00
65173;BME280;51758;52.218;5.172;2023-04-01T04:36:15;96454.81;;;9.64;100.00
65173;BME280;51758;52.218;5.172;2023-04-01T04:38:44;96469.22;;;9.81;100.00
65173;BME280;51758;52.218;5.172;2023-04-01T04:41:13;96472.03;;;9.84;100.00
65173;BME280;51758;52.218;5.172;2023-04-01T04:43:41;96497.81;;;9.86;100.00
65173;BME280;51758;52.218;5.172;2023-04-01T04:46:10;96516.88;;;9.81;100.00
65173;BME280;51758;52.218;5.172;2023-04-01T04:48:38;96526.50;;;9.81;100.00
65173;BME280;51758;52.218;5.172;2023-04-01T04:51:06;96544.97;;;9.84;100.00
65173;BME280;51758;52.218;5.172;2023-04-01T04:53:33;96565.03;;;9.84;100.00
65173;BME280;51758;52.218;5.172;2023-04-01T04:56:03;96584.59;;;9.81;100.00
65173;BME280;51758;52.218;5.172;2023-04-01T04:58:31;96605.16;;;9.83;100.00
65173;BME280;51758;52.218;5.172;2023-04-01T05:00:58;96606.66;;;9.89;100.00
65173;BME280;51758;52.218;5.172;2023-04-01T05:03:26;96619.22;;;9.82;100.00
65173;BME280;51758;52.218;5.172;2023-04-01T05:05:54;96648.63;;;9.87;100.00
65173;BME280;51758;52.218;5.172;2023-04-01T05:08:22;96664.25;;;9.87;100.00
65173;BME280;51758;52.218;5.172;2023-04-01T05:10:50;96643.63;;;9.62;100.00
65173;BME280;51758;52.218;5.172;2023-04-01T05:13:19;96689.53;;;9.87;100.00
65173;BME280;51758;52.218;5.172;2023-04-01T05:15:46;96692.06;;;9.92;100.00
65173;BME280;51758;52.218;5.172;2023-04-01T05:18:14;96706.13;;;9.96;100.00
65173;BME280;51758;52.218;5.172;2023-04-01T05:20:46;96718.63;;;9.94;100.00
65173;BME280;51758;52.218;5.172;2023-04-01T05:23:15;96733.91;;;9.72;100.00
65173;BME280;51758;52.218;5.172;2023-04-01T05:25:43;96757.56;;;9.80;100.00
65173;BME280;51758;52.218;5.172;2023-04-01T05:28:11;96759.34;;;9.85;100.00
65173;BME280;51758;52.218;5.172;2023-04-01T05:30:41;96771.59;;;9.84;100.00
65173;BME280;51758;52.218;5.172;2023-04-01T05:33:09;96783.66;;;9.75;100.00
65173;BME280;51758;52.218;5.172;2023-04-01T05:35:37;96792.44;;;9.84;100.00
65173;BME280;51758;52.218;5.172;2023-04-01T05:38:06;96797.13;;;9.87;100.00
65173;BME280;51758;52.218;5.172;2023-04-01T05:40:34;96814.59;;;9.82;100.00
65173;BME280;51758;52.218;5.172;2023-04-01T05:43:02;96821.34;;;9.83;100.00
65173;BME280;51758;52.218;5.172;2023-04-01T05:45:29;96840.94;;;9.75;100.00
65173;BME280;51758;52.218;5.172;2023-04-01T05:48:00;96847.16;;;9.79;100.00
65173;BME280;51758;52.218;5.172;2023-04-01T05:50:28;96850.00;;;9.83;100.00
65173;BME280;51758;52.218;5.172;2023-04-01T05:52:55;96859.91;;;9.81;100.00
65173;BME280;51758;52.218;5.172;2023-04-01T05:55:24;96857.56;;;9.84;100.00
65173;BME280;51758;52.218;5.172;2023-04-01T05:57:51;96862.53;;;9.81;100.00
65173;BME280;51758;52.218;5.172;2023-04-01T06:00:19;96859.63;;;9.87;100.00
65173;BME280;51758;52.218;5.172;2023-04-01T06:02:47;96870.59;;;9.79;100.00
65173;BME280;51758;52.218;5.172;2023-04-01T06:05:20;96871.13;;;9.81;100.00
65173;BME280;51758;52.218;5.172;2023-04-01T06:07:48;96875.78;;;9.84;100.00
65173;BME280;51758;52.218;5.172;2023-04-01T06:10:17;96879.44;;;9.83;100.00
65173;BME280;51758;52.218;5.172;2023-04-01T06:12:55;96888.59;;;9.76;100.00
65173;BME280;51758;52.218;5.172;2023-04-01T06:15:34;96896.69;;;9.74;100.00
65173;BME280;51758;52.218;5.172;2023-04-01T06:18:39;96890.66;;;9.84;100.00
65173;BME280;51758;52.218;5.172;2023-04-01T06:21:28;96882.50;;;9.95;100.00
65173;BME280;51758;52.218;5.172;2023-04-01T06:24:14;96896.56;;;9.94;100.00
65173;BME280;51758;52.218;5.172;2023-04-01T06:26:52;96908.06;;;9.88;100.00
65173;BME280;51758;52.218;5.172;2023-04-01T06:29:41;96903.88;;;9.92;100.00
65173;BME280;51758;52.218;5.172;2023-04-01T06:32:38;96914.56;;;9.96;100.00
65173;BME280;51758;52.218;5.172;2023-04-01T06:35:40;96924.19;;;10.00;100.00
65173;BME280;51758;52.218;5.172;2023-04-01T06:38:30;96940.59;;;9.96;100.00
65173;BME280;51758;52.218;5.172;2023-04-01T06:41:31;96957.75;;;10.02;100.00
65173;BME280;51758;52.218;5.172;2023-04-01T06:44:12;96966.59;;;10.06;100.00
65173;BME280;51758;52.218;5.172;2023-04-01T06:46:45;96977.56;;;10.03;100.00
65173;BME280;51758;52.218;5.172;2023-04-01T06:49:28;96983.28;;;10.05;100.00
65173;BME280;51758;52.218;5.172;2023-04-01T06:52:06;96986.16;;;10.09;100.00
65173;BME280;51758;52.218;5.172;2023-04-01T06:54:44;96998.97;;;10.00;100.00
65173;BME280;51758;52.218;5.172;2023-04-01T06:57:20;97003.09;;;10.06;100.00
65173;BME280;51758;52.218;5.172;2023-04-01T06:59:51;97000.22;;;10.07;100.00
65173;BME280;51758;52.218;5.172;2023-04-01T07:02:25;97008.28;;;10.11;100.00
65173;BME280;51758;52.218;5.172;2023-04-01T07:04:58;97012.75;;;10.05;100.00
65173;BME280;51758;52.218;5.172;2023-04-01T07:07:30;97021.91;;;9.98;100.00
65173;BME280;51758;52.218;5.172;2023-04-01T07:10:05;97025.50;;;10.07;100.00
65173;BME280;51758;52.218;5.172;2023-04-01T07:12:43;97034.09;;;10.13;100.00
65173;BME280;51758;52.218;5.172;2023-04-01T07:15:18;97030.19;;;10.10;100.00
65173;BME280;51758;52.218;5.172;2023-04-01T07:17:52;97039.25;;;10.28;100.00
65173;BME280;51758;52.218;5.172;2023-04-01T07:20:23;97045.22;;;10.33;100.00
65173;BME280;51758;52.218;5.172;2023-04-01T07:22:56;97055.66;;;10.33;100.00
65173;BME280;51758;52.218;5.172;2023-04-01T07:25:29;97058.25;;;10.38;100.00
65173;BME280;51758;52.218;5.172;2023-04-01T07:28:02;97065.78;;;10.45;100.00
65173;BME280;51758;52.218;5.172;2023-04-01T07:30:40;97078.56;;;10.47;100.00
65173;BME280;51758;52.218;5.172;2023-04-01T07:33:16;97098.38;;;10.43;100.00
65173;BME280;51758;52.218;5.172;2023-04-01T07:35:52;97104.63;;;10.41;100.00
65173;BME280;51758;52.218;5.172;2023-04-01T07:38:32;97114.53;;;10.50;100.00
65173;BME280;51758;52.218;5.172;2023-04-01T07:41:11;97139.84;;;10.44;100.00
65173;BME280;51758;52.218;5.172;2023-04-01T07:43:51;97142.16;;;10.51;100.00
65173;BME280;51758;52.218;5.172;2023-04-01T07:46:32;97142.91;;;10.56;100.00
65173;BME280;51758;52.218;5.172;2023-04-01T07:49:08;97146.84;;;10.54;100.00
65173;BME280;51758;52.218;5.172;2023-04-01T07:51:45;97151.47;;;10.72;100.00
65173;BME280;51758;52.218;5.172;2023-04-01T07:54:22;97164.72;;;10.81;100.00
65173;BME280;51758;52.218;5.172;2023-04-01T07:56:57;97153.44;;;10.90;100.00
65173;BME280;51758;52.218;5.172;2023-04-01T07:59:35;97171.69;;;10.95;100.00
65173;BME280;51758;52.218;5.172;2023-04-01T08:02:20;97189.97;;;10.90;100.00
65173;BME280;51758;52.218;5.172;2023-04-01T08:04:55;97209.28;;;10.89;100.00
65173;BME280;51758;52.218;5.172;2023-04-01T08:07:33;97219.94;;;11.03;100.00
65173;BME280;51758;52.218;5.172;2023-04-01T08:10:07;97239.28;;;10.97;100.00
65173;BME280;51758;52.218;5.172;2023-04-01T08:12:47;97257.88;;;10.85;100.00
65173;BME280;51758;52.218;5.172;2023-04-01T08:15:22;97271.44;;;10.82;100.00
65173;BME280;51758;52.218;5.172;2023-04-01T08:18:01;97276.63;;;10.92;100.00
65173;BME280;51758;52.218;5.172;2023-04-01T08:20:35;97274.03;;;10.87;100.00
65173;BME280;51758;52.218;5.172;2023-04-01T08:23:11;97304.03;;;11.00;100.00
65173;BME280;51758;52.218;5.172;2023-04-01T08:25:44;97311.06;;;10.94;100.00
65173;BME280;51758;52.218;5.172;2023-04-01T08:28:20;97330.13;;;10.95;100.00
65173;BME280;51758;52.218;5.172;2023-04-01T08:30:53;97346.78;;;11.04;100.00
65173;BME280;51758;52.218;5.172;2023-04-01T08:33:24;97354.38;;;11.05;100.00
65173;BME280;51758;52.218;5.172;2023-04-01T08:35:57;97364.50;;;11.17;100.00
65173;BME280;51758;52.218;5.172;2023-04-01T08:38:30;97376.28;;;11.09;100.00
65173;BME280;51758;52.218;5.172;2023-04-01T08:41:01;97382.03;;;11.06;100.00
65173;BME280;51758;52.218;5.172;2023-04-01T08:44:03;97392.44;;;11.17;100.00
65173;BME280;51758;52.218;5.172;2023-04-01T08:46:52;97400.84;;;11.13;100.00
65173;BME280;51758;52.218;5.172;2023-04-01T08:49:45;97418.06;;;11.09;100.00
65173;BME280;51758;52.218;5.172;2023-04-01T08:52:27;97433.72;;;11.04;100.00
65173;BME280;51758;52.218;5.172;2023-04-01T08:58:13;97441.28;;;11.16;100.00
65173;BME280;51758;52.218;5.172;2023-04-01T09:00:51;97448.09;;;11.12;100.00
65173;BME280;51758;52.218;5.172;2023-04-01T09:03:45;97454.31;;;11.21;100.00
65173;BME280;51758;52.218;5.172;2023-04-01T09:06:33;97460.59;;;11.20;100.00
65173;BME280;51758;52.218;5.172;2023-04-01T09:09:21;97479.66;;;11.21;100.00
65173;BME280;51758;52.218;5.172;2023-04-01T09:12:19;97471.03;;;11.20;100.00
65173;BME280;51758;52.218;5.172;2023-04-01T09:15:18;97476.00;;;11.22;100.00
65173;BME280;51758;52.218;5.172;2023-04-01T09:18:02;97480.69;;;11.30;100.00
65173;BME280;51758;52.218;5.172;2023-04-01T09:20:46;97465.56;;;11.27;100.00
65173;BME280;51758;52.218;5.172;2023-04-01T09:23:40;97484.06;;;11.35;100.00
65173;BME280;51758;52.218;5.172;2023-04-01T09:26:30;97487.47;;;11.36;100.00
65173;BME280;51758;52.218;5.172;2023-04-01T09:29:15;97493.75;;;11.35;100.00
65173;BME280;51758;52.218;5.172;2023-04-01T09:32:05;97498.69;;;11.36;100.00
65173;BME280;51758;52.218;5.172;2023-04-01T09:35:04;97500.25;;;11.47;100.00
65173;BME280;51758;52.218;5.172;2023-04-01T09:37:48;97507.03;;;11.48;100.00
65173;BME280;51758;52.218;5.172;2023-04-01T09:40:26;97514.63;;;11.45;100.00
65173;BME280;51758;52.218;5.172;2023-04-01T09:43:13;97520.59;;;11.56;100.00
65173;BME280;51758;52.218;5.172;2023-04-01T09:46:02;97535.75;;;11.54;100.00
65173;BME280;51758;52.218;5.172;2023-04-01T09:48:44;97545.44;;;11.43;100.00
65173;BME280;51758;52.218;5.172;2023-04-01T09:51:25;97554.56;;;11.56;100.00
65173;BME280;51758;52.218;5.172;2023-04-01T09:54:03;97560.81;;;11.55;100.00
65173;BME280;51758;52.218;5.172;2023-04-01T09:57:06;97568.94;;;11.58;100.00
65173;BME280;51758;52.218;5.172;2023-04-01T10:02:58;97589.84;;;11.33;100.00
65173;BME280;51758;52.218;5.172;2023-04-01T10:06:06;97582.53;;;11.45;100.00
65173;BME280;51758;52.218;5.172;2023-04-01T10:08:56;97604.22;;;11.45;100.00
65173;BME280;51758;52.218;5.172;2023-04-01T10:20:46;97595.56;;;12.01;100.00
65173;BME280;51758;52.218;5.172;2023-04-01T10:23:42;97594.91;;;12.29;100.00
65173;BME280;51758;52.218;5.172;2023-04-01T10:26:28;97595.22;;;12.28;100.00
65173;BME280;51758;52.218;5.172;2023-04-01T10:29:42;97617.97;;;12.22;100.00
65173;BME280;51758;52.218;5.172;2023-04-01T10:32:50;97635.50;;;12.22;100.00
65173;BME280;51758;52.218;5.172;2023-04-01T10:39:03;97652.72;;;12.38;100.00
65173;BME280;51758;52.218;5.172;2023-04-01T10:42:02;97654.44;;;12.68;100.00
65173;BME280;51758;52.218;5.172;2023-04-01T10:45:00;97661.78;;;12.66;100.00
65173;BME280;51758;52.218;5.172;2023-04-01T10:48:10;97663.50;;;12.90;100.00
65173;BME280;51758;52.218;5.172;2023-04-01T10:54:09;97695.81;;;12.66;100.00
65173;BME280;51758;52.218;5.172;2023-04-01T10:56:51;97710.69;;;12.75;100.00
65173;BME280;51758;52.218;5.172;2023-04-01T10:59:42;97721.66;;;12.82;100.00
65173;BME280;51758;52.218;5.172;2023-04-01T11:02:55;97733.69;;;12.83;100.00
65173;BME280;51758;52.218;5.172;2023-04-01T11:09:02;97745.44;;;12.96;100.00
65173;BME280;51758;52.218;5.172;2023-04-01T11:15:06;97742.06;;;13.45;100.00
65173;BME280;51758;52.218;5.172;2023-04-01T11:18:09;97757.84;;;13.40;100.00
65173;BME280;51758;52.218;5.172;2023-04-01T11:20:59;97773.56;;;13.35;100.00
65173;BME280;51758;52.218;5.172;2023-04-01T11:26:41;97802.50;;;13.14;100.00
65173;BME280;51758;52.218;5.172;2023-04-01T11:29:19;97821.31;;;13.11;100.00
65173;BME280;51758;52.218;5.172;2023-04-01T11:31:54;97837.06;;;12.96;100.00
65173;BME280;51758;52.218;5.172;2023-04-01T11:34:47;97862.22;;;12.97;100.00
65173;BME280;51758;52.218;5.172;2023-04-01T11:37:29;97868.00;;;12.89;100.00
65173;BME280;51758;52.218;5.172;2023-04-01T11:40:11;97869.31;;;12.91;100.00
65173;BME280;51758;52.218;5.172;2023-04-01T11:42:43;97880.56;;;12.82;100.00
65173;BME280;51758;52.218;5.172;2023-04-01T11:45:21;97873.00;;;12.60;100.00
65173;BME280;51758;52.218;5.172;2023-04-01T11:48:02;97901.50;;;12.72;100.00
65173;BME280;51758;52.218;5.172;2023-04-01T11:50:45;97886.88;;;12.66;100.00
65173;BME280;51758;52.218;5.172;2023-04-01T11:53:23;97917.22;;;12.56;100.00
65173;BME280;51758;52.218;5.172;2023-04-01T11:56:01;97910.66;;;12.69;100.00
65173;BME280;51758;52.218;5.172;2023-04-01T12:01:35;97924.28;;;12.46;100.00
65173;BME280;51758;52.218;5.172;2023-04-01T12:04:36;97926.38;;;12.49;100.00
65173;BME280;51758;52.218;5.172;2023-04-01T12:07:17;97929.75;;;12.34;100.00
65173;BME280;51758;52.218;5.172;2023-04-01T12:09:54;97938.91;;;12.27;100.00
65173;BME280;51758;52.218;5.172;2023-04-01T12:12:29;97948.56;;;12.31;100.00
65173;BME280;51758;52.218;5.172;2023-04-01T12:15:10;97950.13;;;12.17;100.00
65173;BME280;51758;52.218;5.172;2023-04-01T12:17:46;97968.91;;;12.04;100.00
65173;BME280;51758;52.218;5.172;2023-04-01T12:20:28;97977.47;;;11.84;100.00
65173;BME280;51758;52.218;5.172;2023-04-01T12:23:06;97982.97;;;11.93;100.00
65173;BME280;51758;52.218;5.172;2023-04-01T12:25:51;97978.28;;;11.90;100.00
65173;BME280;51758;52.218;5.172;2023-04-01T12:28:30;97968.94;;;11.52;100.00
65173;BME280;51758;52.218;5.172;2023-04-01T12:31:18;97985.56;;;11.77;100.00
65173;BME280;51758;52.218;5.172;2023-04-01T12:37:13;97969.97;;;12.03;100.00
65173;BME280;51758;52.218;5.172;2023-04-01T12:39:57;97974.16;;;12.09;100.00
65173;BME280;51758;52.218;5.172;2023-04-01T12:42:40;97961.41;;;12.28;100.00
65173;BME280;51758;52.218;5.172;2023-04-01T12:45:28;97949.38;;;12.42;100.00
65173;BME280;51758;52.218;5.172;2023-04-01T12:51:28;97918.28;;;12.91;100.00
65173;BME280;51758;52.218;5.172;2023-04-01T12:54:27;97915.66;;;13.16;100.00
65173;BME280;51758;52.218;5.172;2023-04-01T12:57:12;97920.53;;;13.43;100.00
65173;BME280;51758;52.218;5.172;2023-04-01T12:59:55;97929.44;;;13.52;100.00
65173;BME280;51758;52.218;5.172;2023-04-01T13:02:38;97965.09;;;13.43;100.00
65173;BME280;51758;52.218;5.172;2023-04-01T13:05:24;97988.47;;;13.30;100.00
65173;BME280;51758;52.218;5.172;2023-04-01T13:08:08;98014.09;;;13.02;100.00
65173;BME280;51758;52.218;5.172;2023-04-01T13:11:05;98036.09;;;12.91;100.00
65173;BME280;51758;52.218;5.172;2023-04-01T13:13:51;98059.09;;;12.69;100.00
65173;BME280;51758;52.218;5.172;2023-04-01T13:16:29;98082.31;;;12.40;100.00
65173;BME280;51758;52.218;5.172;2023-04-01T13:19:03;98103.16;;;12.25;100.00
65173;BME280;51758;52.218;5.172;2023-04-01T13:21:42;98107.53;;;12.09;100.00
65173;BME280;51758;52.218;5.172;2023-04-01T13:24:24;98114.28;;;12.05;100.00
65173;BME280;51758;52.218;5.172;2023-04-01T13:27:01;98100.38;;;11.89;100.00
65173;BME280;51758;52.218;5.172;2023-04-01T13:29:36;98110.63;;;12.06;100.00
65173;BME280;51758;52.218;5.172;2023-04-01T13:32:22;98096.56;;;12.12;100.00
65173;BME280;51758;52.218;5.172;2023-04-01T13:35:17;98101.47;;;11.98;100.00
65173;BME280;51758;52.218;5.172;2023-04-01T13:37:58;98110.06;;;11.94;100.00
65173;BME280;51758;52.218;5.172;2023-04-01T13:40:40;98106.94;;;11.97;100.00
65173;BME280;51758;52.218;5.172;2023-04-01T13:43:30;98109.94;;;11.78;100.00
65173;BME280;51758;52.218;5.172;2023-04-01T13:46:24;98121.88;;;11.64;100.00
65173;BME280;51758;52.218;5.172;2023-04-01T13:49:14;98116.28;;;11.56;100.00
65173;BME280;51758;52.218;5.172;2023-04-01T13:51:56;98125.34;;;11.43;100.00
65173;BME280;51758;52.218;5.172;2023-04-01T13:54:55;98126.91;;;11.44;100.00
65173;BME280;51758;52.218;5.172;2023-04-01T13:57:42;98118.28;;;11.11;100.00
65173;BME280;51758;52.218;5.172;2023-04-01T14:00:22;98116.56;;;11.22;100.00
65173;BME280;51758;52.218;5.172;2023-04-01T14:03:15;98106.69;;;11.29;100.00
65173;BME280;51758;52.218;5.172;2023-04-01T14:06:04;98117.25;;;11.12;100.00
65173;BME280;51758;52.218;5.172;2023-04-01T14:08:44;98098.06;;;11.29;100.00
65173;BME280;51758;52.218;5.172;2023-04-01T14:11:25;98109.31;;;11.02;100.00
65173;BME280;51758;52.218;5.172;2023-04-01T14:14:01;98096.16;;;11.19;100.00
65173;BME280;51758;52.218;5.172;2023-04-01T14:16:48;98103.25;;;10.97;100.00
65173;BME280;51758;52.218;5.172;2023-04-01T14:19:31;98087.19;;;11.10;100.00
65173;BME280;51758;52.218;5.172;2023-04-01T14:22:13;98083.50;;;11.06;100.00
65173;BME280;51758;52.218;5.172;2023-04-01T14:24:57;98089.75;;;11.05;100.00
65173;BME280;51758;52.218;5.172;2023-04-01T14:27:38;98076.22;;;11.08;100.00